Terminal Aerodrome Forecast
Issued by NWS

Home | Current Version | Previous Version | Graphics & Text | Print | Product List | Glossary On
Versions: 1 2 3 4 5 6 7 8 9 10 11 12 13 14 15
653
FTUS43 KOAX 211138
TAFCDR
TAF
KCDR 211138Z 2112/2212 26006KT P6SM FEW250
     FM211600 31010G20KT P6SM FEW130
     FM212200 33013G21KT P6SM VCTS BKN100CB
     FM220400 28007KT P6SM BKN150=

USA.gov is the U.S. government's official web portal to all federal, state and local government web resources and services.